createdAt,value
2023-04-05T00:01:08.035Z,40.44
2023-04-05T00:03:35.453Z,40.32
2023-04-05T00:06:02.978Z,40.73
2023-04-05T00:08:29.743Z,40.75
2023-04-05T00:10:56.313Z,40.65
2023-04-05T00:13:22.894Z,40.79
2023-04-05T00:15:49.749Z,40.77
2023-04-05T00:18:22.287Z,40.87
2023-04-05T00:20:49.512Z,40.67
2023-04-05T00:23:17.569Z,40.86
2023-04-05T00:25:44.779Z,40.86
2023-04-05T00:28:11.662Z,40.88
2023-04-05T00:30:38.194Z,40.67
2023-04-05T00:33:05.015Z,40.97
2023-04-05T00:35:31.794Z,41.04
2023-04-05T00:37:58.336Z,40.96
2023-04-05T00:40:25.093Z,41.00
2023-04-05T00:42:51.630Z,40.72
2023-04-05T00:45:18.139Z,40.81
2023-04-05T00:47:45.195Z,40.71
2023-04-05T00:50:13.625Z,40.85
2023-04-05T00:52:43.612Z,40.81
2023-04-05T00:55:10.920Z,40.95
2023-04-05T00:57:39.342Z,40.92
2023-04-05T01:00:09.652Z,40.97
2023-04-05T01:02:39.882Z,41.02
2023-04-05T01:05:14.412Z,40.92
2023-04-05T01:07:46.600Z,41.00
2023-04-05T01:10:14.620Z,41.22
2023-04-05T01:12:41.775Z,40.95
2023-04-05T01:15:08.648Z,41.34
2023-04-05T01:17:39.379Z,41.02
2023-04-05T01:20:13.473Z,41.17
2023-04-05T01:22:58.709Z,41.25
2023-04-05T01:25:31.014Z,41.22
2023-04-05T01:28:00.784Z,41.37
2023-04-05T01:30:32.200Z,41.43
2023-04-05T01:33:15.898Z,41.61
2023-04-05T01:36:01.066Z,41.45
2023-04-05T01:38:28.253Z,41.48
2023-04-05T01:40:55.022Z,41.35
2023-04-05T01:43:21.544Z,41.66
2023-04-05T01:45:48.255Z,41.37
2023-04-05T01:48:15.183Z,41.41
2023-04-05T01:50:41.887Z,41.64
2023-04-05T01:53:08.649Z,41.32
2023-04-05T01:55:35.147Z,41.44
2023-04-05T01:58:01.699Z,41.71
2023-04-05T02:00:28.354Z,41.85
2023-04-05T02:02:54.912Z,41.83
2023-04-05T02:05:21.451Z,41.85
2023-04-05T02:07:47.957Z,41.65
2023-04-05T02:10:14.621Z,41.71
2023-04-05T02:12:41.139Z,41.85
2023-04-05T02:15:07.941Z,41.58
2023-04-05T02:17:40.731Z,41.93
2023-04-05T02:20:07.905Z,41.78
2023-04-05T02:22:34.422Z,41.93
2023-04-05T02:25:01.593Z,41.73
2023-04-05T02:30:02.957Z,41.75
2023-04-05T02:32:29.528Z,41.76
2023-04-05T02:34:56.252Z,41.71
2023-04-05T02:37:22.951Z,41.96
2023-04-05T02:39:49.556Z,42.19
2023-04-05T02:42:16.117Z,41.88
2023-04-05T02:44:42.654Z,42.17
2023-04-05T02:47:09.200Z,42.02
2023-04-05T02:49:35.953Z,42.09
2023-04-05T02:52:02.449Z,42.06
2023-04-05T02:54:29.040Z,42.12
2023-04-05T02:56:57.892Z,42.19
2023-04-05T02:59:24.607Z,41.97
2023-04-05T03:01:51.169Z,42.31
2023-04-05T03:04:17.665Z,42.31
2023-04-05T03:06:46.545Z,42.43
2023-04-05T03:09:14.564Z,42.28
2023-04-05T03:11:41.084Z,42.14
2023-04-05T03:14:07.634Z,42.60
2023-04-05T03:16:34.679Z,42.22
2023-04-05T03:19:02.533Z,42.59
2023-04-05T03:21:30.099Z,42.45
2023-04-05T03:23:56.774Z,42.48
2023-04-05T03:26:23.360Z,42.63
2023-04-05T03:28:49.895Z,42.29
2023-04-05T03:31:18.947Z,42.51
2023-04-05T03:33:47.088Z,42.65
2023-04-05T03:36:16.776Z,42.70
2023-04-05T03:38:44.493Z,42.47
2023-04-05T03:41:10.965Z,42.67
2023-04-05T03:43:38.056Z,42.45
2023-04-05T03:46:04.776Z,42.82
2023-04-05T03:48:31.323Z,42.84
2023-04-05T03:50:57.859Z,42.61
2023-04-05T03:53:24.510Z,42.64
2023-04-05T03:55:54.383Z,42.81
2023-04-05T03:58:21.026Z,42.74
2023-04-05T04:00:47.787Z,42.74
2023-04-05T04:03:15.384Z,42.93
2023-04-05T04:05:42.390Z,42.87
2023-04-05T04:08:09.928Z,44.66
2023-04-05T04:10:36.744Z,46.76
2023-04-05T04:13:03.240Z,48.89
2023-04-05T04:15:29.849Z,50.31
2023-04-05T04:17:56.876Z,51.58
2023-04-05T04:20:23.492Z,51.71
2023-04-05T04:22:50.210Z,51.90
2023-04-05T04:25:18.939Z,51.26
2023-04-05T04:27:46.801Z,51.36
2023-04-05T04:30:15.024Z,50.35
2023-04-05T04:32:58.854Z,49.73
2023-04-05T04:35:28.093Z,48.96
2023-04-05T04:38:01.610Z,48.27
2023-04-05T04:40:38.832Z,47.01
2023-04-05T04:43:17.241Z,46.02
2023-04-05T04:45:47.247Z,44.85
2023-04-05T04:48:14.647Z,43.84
2023-04-05T04:50:41.179Z,43.45
2023-04-05T04:53:07.705Z,42.96
2023-04-05T04:55:36.346Z,42.13
2023-04-05T04:58:10.070Z,41.80
2023-04-05T05:00:39.413Z,41.70
2023-04-05T05:03:07.213Z,41.46
2023-04-05T05:05:33.818Z,41.27
2023-04-05T05:08:00.408Z,41.44
2023-04-05T05:10:26.953Z,41.02
2023-04-05T05:12:53.995Z,41.08
2023-04-05T05:15:20.551Z,41.33
2023-04-05T05:17:47.410Z,43.28
2023-04-05T05:20:14.019Z,44.72
2023-04-05T05:22:40.689Z,45.37
2023-04-05T05:25:07.551Z,46.05
2023-04-05T05:27:34.214Z,45.95
2023-04-05T05:30:01.367Z,45.07
2023-04-05T05:32:28.028Z,44.30
2023-04-05T05:34:54.628Z,43.54
2023-04-05T05:37:22.541Z,42.94
2023-04-05T05:39:49.045Z,42.84
2023-04-05T05:42:15.554Z,42.15
2023-04-05T05:44:42.090Z,42.10
2023-04-05T05:47:08.614Z,41.82
2023-04-05T05:49:35.197Z,41.86
2023-04-05T05:52:01.865Z,41.94
2023-04-05T05:54:28.481Z,41.90
2023-04-05T05:56:55.026Z,41.83
2023-04-05T05:59:21.601Z,41.78
2023-04-05T06:01:48.579Z,41.98
2023-04-05T06:04:15.295Z,41.65
2023-04-05T06:06:44.000Z,41.96
2023-04-05T06:09:10.953Z,41.72
2023-04-05T06:11:43.582Z,41.82
2023-04-05T06:14:20.041Z,42.21
2023-04-05T06:16:46.778Z,42.08
2023-04-05T06:19:13.304Z,42.12
2023-04-05T06:21:39.838Z,42.38
2023-04-05T06:24:06.421Z,42.09
2023-04-05T06:26:32.964Z,42.48
2023-04-05T06:28:59.493Z,42.64
2023-04-05T06:31:26.927Z,42.61
2023-04-05T06:33:53.496Z,42.76
2023-04-05T06:36:20.068Z,42.80
2023-04-05T06:38:46.843Z,42.80
2023-04-05T06:41:13.385Z,42.75
2023-04-05T06:43:39.936Z,42.77
2023-04-05T06:46:09.703Z,43.04
2023-04-05T06:48:36.631Z,43.04
2023-04-05T06:51:03.459Z,43.15
2023-04-05T06:53:30.571Z,43.26
2023-04-05T06:55:58.130Z,43.00
2023-04-05T06:58:25.000Z,43.42
2023-04-05T07:00:51.686Z,43.40
2023-04-05T07:03:18.668Z,43.43
2023-04-05T07:05:54.312Z,43.49
2023-04-05T07:08:21.459Z,43.13
2023-04-05T07:10:48.392Z,43.39
2023-04-05T07:13:14.929Z,43.34
2023-04-05T07:15:41.508Z,43.25
2023-04-05T07:18:08.490Z,43.52
2023-04-05T07:20:35.051Z,43.45
2023-04-05T07:23:01.522Z,43.65
2023-04-05T07:25:28.022Z,43.40
2023-04-05T07:27:54.536Z,43.85
2023-04-05T07:30:21.122Z,43.68
2023-04-05T07:32:47.635Z,43.59
2023-04-05T07:35:14.187Z,43.66
2023-04-05T07:37:40.843Z,43.84
2023-04-05T07:40:09.042Z,43.92
2023-04-05T07:42:35.615Z,44.01
2023-04-05T07:45:02.136Z,44.00
2023-04-05T07:47:28.714Z,43.80
2023-04-05T07:49:55.243Z,43.94
2023-04-05T07:52:21.703Z,43.74
2023-04-05T07:54:48.240Z,43.88
2023-04-05T07:57:18.651Z,43.69
2023-04-05T07:59:45.399Z,43.91
2023-04-05T08:02:14.488Z,43.94
2023-04-05T08:04:41.968Z,44.02
2023-04-05T08:07:08.836Z,43.75
2023-04-05T08:09:35.898Z,44.10
2023-04-05T08:12:02.982Z,44.09
2023-04-05T08:14:29.538Z,44.43
2023-04-05T08:16:56.155Z,44.39
2023-04-05T08:19:22.732Z,44.45
2023-04-05T08:21:49.256Z,44.57
2023-04-05T08:24:15.854Z,44.05
2023-04-05T08:26:43.529Z,43.96
2023-04-05T08:29:10.080Z,44.17
2023-04-05T08:31:36.905Z,43.97
2023-04-05T08:34:05.500Z,43.91
2023-04-05T08:36:32.058Z,44.08
2023-04-05T08:38:58.563Z,43.78
2023-04-05T08:41:27.344Z,43.48
2023-04-05T08:43:57.997Z,43.62
2023-04-05T08:46:24.922Z,43.76
2023-04-05T08:48:51.546Z,43.35
2023-04-05T08:51:21.833Z,43.45
2023-04-05T08:53:48.721Z,42.95
2023-04-05T08:56:17.083Z,42.84
2023-04-05T08:58:49.583Z,42.85
2023-04-05T09:01:16.806Z,42.73
2023-04-05T09:03:44.076Z,42.95
2023-04-05T09:06:12.729Z,43.21
2023-04-05T09:08:39.317Z,43.22
2023-04-05T09:11:06.496Z,42.59
2023-04-05T09:13:33.035Z,42.70
2023-04-05T09:16:01.359Z,41.90
2023-04-05T09:18:28.033Z,41.86
2023-04-05T09:21:03.193Z,41.69
2023-04-05T09:23:29.692Z,41.24
2023-04-05T09:25:56.258Z,41.19
2023-04-05T09:28:22.795Z,41.09
2023-04-05T09:30:49.514Z,41.15
2023-04-05T09:33:18.964Z,41.18
2023-04-05T09:35:45.548Z,40.71
2023-04-05T09:38:12.071Z,40.92
2023-04-05T09:40:48.643Z,40.57
2023-04-05T09:43:35.518Z,40.30
2023-04-05T09:46:02.211Z,40.18
2023-04-05T09:48:48.753Z,39.65
2023-04-05T09:51:15.967Z,39.68
2023-04-05T09:54:02.702Z,39.63
2023-04-05T09:56:30.572Z,39.67
2023-04-05T09:59:06.707Z,39.61
2023-04-05T10:01:33.844Z,39.60
2023-04-05T10:04:00.943Z,39.25
2023-04-05T10:06:39.742Z,39.17
2023-04-05T10:09:07.227Z,39.64
2023-04-05T10:11:34.573Z,40.01
2023-04-05T10:14:04.001Z,39.87
2023-04-05T10:16:32.467Z,40.31
2023-04-05T14:29:02.243Z,32.06
2023-04-05T14:31:28.997Z,32.06
2023-04-05T14:33:55.650Z,30.80
2023-04-05T14:36:22.255Z,30.71
2023-04-05T14:38:48.942Z,29.86
2023-04-05T14:41:15.694Z,30.28
2023-04-05T14:43:42.368Z,30.04
2023-04-05T14:46:09.119Z,30.32
2023-04-05T14:48:35.874Z,30.74
2023-04-05T14:51:02.415Z,30.73
2023-04-05T14:53:28.957Z,31.51
2023-04-05T14:55:55.494Z,31.82
2023-04-05T14:58:22.032Z,31.81
2023-04-05T15:00:52.395Z,31.66
2023-04-05T15:03:19.890Z,31.95
2023-04-05T15:05:47.267Z,31.84
2023-04-05T15:08:14.466Z,32.37
2023-04-05T15:10:43.062Z,31.71
2023-04-05T15:13:10.651Z,32.46
2023-04-05T15:15:37.685Z,31.74
2023-04-05T15:18:04.391Z,31.44
2023-04-05T15:20:31.263Z,31.81
2023-04-05T15:22:57.963Z,31.55
2023-04-05T15:25:24.529Z,31.22
2023-04-05T15:27:51.432Z,31.34
2023-04-05T15:30:18.072Z,31.53
2023-04-05T15:32:44.692Z,28.57
2023-04-05T15:35:11.585Z,30.75
2023-04-05T15:37:39.369Z,29.68
2023-04-05T15:40:06.711Z,29.19
2023-04-05T15:42:36.275Z,30.34
2023-04-05T15:45:02.860Z,30.41
2023-04-05T15:47:29.492Z,31.04
2023-04-05T15:49:56.404Z,30.80
2023-04-05T15:52:22.933Z,31.24
2023-04-05T15:54:49.506Z,30.81
2023-04-05T15:57:16.193Z,31.50
2023-04-05T15:59:42.856Z,31.35
2023-04-05T16:02:09.803Z,31.57
2023-04-05T16:04:36.725Z,31.75
2023-04-05T16:07:03.268Z,31.59
2023-04-05T16:09:30.184Z,31.49
2023-04-05T16:11:57.066Z,31.84
2023-04-05T16:14:23.619Z,32.00
2023-04-05T16:16:54.068Z,32.08
2023-04-05T16:19:21.127Z,31.77
2023-04-05T16:21:47.983Z,31.69
2023-04-05T16:24:14.520Z,31.41
2023-04-05T16:26:41.493Z,31.71
2023-04-05T16:29:08.039Z,31.29
2023-04-05T16:31:36.363Z,31.42
2023-04-05T16:34:03.167Z,31.58
2023-04-05T16:36:29.761Z,31.63
2023-04-05T16:38:56.390Z,31.28
2023-04-05T16:41:22.973Z,31.60
2023-04-05T16:43:49.525Z,31.35
2023-04-05T16:46:16.115Z,31.56
2023-04-05T16:48:42.645Z,31.89
2023-04-05T16:51:09.273Z,31.53
2023-04-05T16:53:35.970Z,31.54
2023-04-05T16:56:02.484Z,31.67
2023-04-05T16:58:29.802Z,31.80
2023-04-05T17:00:58.982Z,31.89
2023-04-05T17:03:26.026Z,32.31
2023-04-05T17:05:52.733Z,32.28
2023-04-05T17:08:19.506Z,31.91
2023-04-05T17:10:46.067Z,32.08
2023-04-05T17:13:12.613Z,32.32
2023-04-05T17:15:39.157Z,32.38
2023-04-05T17:18:06.533Z,32.31
2023-04-05T17:20:33.248Z,32.10
2023-04-05T17:23:01.093Z,32.28
2023-04-05T17:25:27.746Z,32.22
2023-04-05T17:27:54.353Z,32.15
2023-04-05T17:30:21.292Z,32.50
2023-04-05T17:32:48.004Z,32.36
2023-04-05T17:35:14.729Z,32.31
2023-04-05T17:37:41.284Z,32.18
2023-04-05T17:40:08.057Z,32.41
2023-04-05T17:42:34.856Z,32.42
2023-04-05T17:45:01.628Z,32.51
2023-04-05T17:47:28.271Z,32.08
2023-04-05T17:49:54.894Z,32.11
2023-04-05T17:52:22.775Z,32.31
2023-04-05T17:54:49.382Z,32.22
2023-04-05T17:57:16.095Z,32.13
2023-04-05T17:59:43.167Z,32.46
2023-04-05T18:02:13.363Z,32.12
2023-04-05T18:04:40.409Z,32.48
2023-04-05T18:07:07.694Z,32.15
2023-04-05T18:09:34.600Z,32.64
2023-04-05T18:12:01.790Z,32.45
2023-04-05T18:14:28.324Z,32.62
2023-04-05T18:16:55.004Z,32.62
2023-04-05T18:19:21.720Z,32.64
2023-04-05T18:21:48.333Z,32.40
2023-04-05T18:24:14.997Z,32.55
2023-04-05T18:26:41.779Z,32.49
2023-04-05T18:29:08.481Z,32.46
2023-04-05T18:31:35.286Z,32.83
2023-04-05T18:34:01.933Z,32.77
2023-04-05T18:36:28.494Z,33.01
2023-04-05T18:38:58.489Z,32.81
2023-04-05T18:41:25.162Z,33.17
2023-04-05T18:43:54.882Z,33.29
2023-04-05T18:46:22.654Z,33.08
2023-04-05T18:48:54.798Z,33.41
2023-04-05T18:51:22.309Z,33.62
2023-04-05T18:53:49.026Z,33.34
2023-04-05T18:56:15.966Z,33.46
2023-04-05T18:58:42.597Z,33.77
2023-04-05T19:01:14.995Z,33.61
2023-04-05T19:03:41.967Z,33.61
2023-04-05T19:06:08.596Z,33.99
2023-04-05T19:08:35.160Z,33.81
2023-04-05T19:11:01.832Z,33.77
2023-04-05T19:13:28.457Z,33.97
2023-04-05T19:15:55.225Z,33.90
2023-04-05T19:18:25.827Z,33.93
2023-04-05T19:20:56.452Z,34.16
2023-04-05T19:23:23.174Z,34.38
2023-04-05T19:25:49.785Z,34.05
2023-04-05T19:28:16.556Z,34.28
2023-04-05T19:30:43.967Z,34.24
2023-04-05T19:33:10.621Z,34.56
2023-04-05T19:35:37.368Z,34.72
2023-04-05T19:38:04.768Z,34.66
2023-04-05T19:40:31.847Z,34.39
2023-04-05T19:42:59.809Z,34.53
2023-04-05T19:45:27.223Z,34.59
2023-04-05T19:47:54.244Z,34.49
2023-04-05T19:50:35.774Z,34.90
2023-04-05T19:53:02.324Z,34.64
2023-04-05T19:55:31.726Z,34.67
2023-04-05T19:57:59.118Z,34.65
2023-04-05T20:00:28.481Z,34.65
2023-04-05T20:02:55.206Z,34.70
2023-04-05T20:05:41.762Z,34.96
2023-04-05T20:08:08.563Z,34.87
2023-04-05T20:10:40.623Z,35.19
2023-04-05T20:13:07.672Z,34.93
2023-04-05T20:15:37.600Z,34.96
2023-04-05T20:18:08.795Z,35.33
2023-04-05T20:20:35.565Z,35.00
2023-04-05T20:23:02.189Z,35.02
2023-04-05T20:25:39.467Z,35.10
2023-04-05T20:28:21.979Z,35.25
2023-04-05T20:30:51.126Z,35.29
2023-04-05T20:33:42.280Z,35.37
2023-04-05T20:36:11.908Z,35.41
2023-04-05T20:38:39.375Z,35.53
2023-04-05T20:41:06.157Z,35.60
2023-04-05T20:43:32.931Z,35.68
2023-04-05T20:46:06.336Z,35.59
2023-04-05T20:48:33.494Z,36.01
2023-04-05T20:51:00.550Z,35.95
2023-04-05T20:53:27.918Z,35.92
2023-04-05T20:55:54.675Z,36.10
2023-04-05T20:58:21.298Z,36.15
2023-04-05T21:00:48.250Z,36.04
2023-04-05T21:03:15.121Z,36.16
2023-04-05T21:05:42.054Z,36.02
2023-04-05T21:08:08.887Z,36.36
2023-04-05T21:10:35.474Z,36.00
2023-04-05T21:13:02.079Z,36.12
2023-04-05T21:15:31.400Z,36.06
2023-04-05T21:18:00.756Z,36.14
2023-04-05T21:20:28.039Z,36.30
2023-04-05T21:22:55.362Z,36.31
2023-04-05T21:25:21.939Z,36.42
2023-04-05T21:27:48.540Z,36.33
2023-04-05T21:30:15.484Z,36.29
2023-04-05T21:32:42.186Z,36.59
2023-04-05T21:35:09.252Z,36.63
2023-04-05T21:37:35.917Z,36.40
2023-04-05T21:40:04.224Z,36.67
2023-04-05T21:42:31.638Z,36.66
2023-04-05T21:44:58.171Z,36.62
2023-04-05T21:47:24.864Z,36.93
2023-04-05T21:49:52.872Z,36.90
2023-04-05T21:52:19.457Z,36.65
2023-04-05T21:54:46.327Z,36.90
2023-04-05T21:57:12.850Z,36.69
2023-04-05T21:59:39.444Z,36.88
2023-04-05T22:02:07.053Z,36.76
2023-04-05T22:04:33.665Z,36.80
2023-04-05T22:07:00.179Z,36.94
2023-04-05T22:09:28.268Z,36.94
2023-04-05T22:11:55.283Z,37.21
2023-04-05T22:14:21.894Z,37.16
2023-04-05T22:16:48.454Z,37.19
2023-04-05T22:19:15.141Z,37.03
2023-04-05T22:21:42.102Z,37.11
2023-04-05T22:24:09.538Z,37.19
2023-04-05T22:26:36.370Z,37.36
2023-04-05T22:29:03.307Z,37.61
2023-04-05T22:31:29.878Z,37.33
2023-04-05T22:33:56.532Z,37.35
2023-04-05T22:36:22.995Z,37.53
2023-04-05T22:38:50.697Z,37.53
2023-04-05T22:41:18.139Z,37.75
2023-04-05T22:43:44.647Z,37.90
2023-04-05T22:46:11.253Z,37.77
2023-04-05T22:48:37.802Z,37.82
2023-04-05T22:51:04.340Z,37.68
2023-04-05T22:53:30.907Z,37.95
2023-04-05T22:55:57.378Z,37.71
2023-04-05T22:58:23.864Z,37.98
2023-04-05T23:00:50.589Z,37.96
2023-04-05T23:03:17.111Z,38.16
2023-04-05T23:05:43.692Z,38.02
2023-04-05T23:08:10.186Z,37.83
2023-04-05T23:10:36.771Z,37.83
2023-04-05T23:13:03.272Z,38.01
2023-04-05T23:15:29.848Z,38.25
2023-04-05T23:17:56.387Z,38.31
2023-04-05T23:20:22.877Z,38.35
2023-04-05T23:22:49.396Z,38.12
2023-04-05T23:25:16.101Z,38.20
2023-04-05T23:27:42.672Z,38.09
2023-04-05T23:30:09.403Z,38.35
2023-04-05T23:32:36.024Z,38.33
2023-04-05T23:35:02.643Z,38.27
2023-04-05T23:37:29.151Z,38.21
2023-04-05T23:39:55.746Z,38.46
2023-04-05T23:42:22.314Z,38.36
2023-04-05T23:44:48.804Z,38.64
2023-04-05T23:47:15.361Z,38.62
2023-04-05T23:49:42.049Z,38.38
2023-04-05T23:52:08.568Z,38.31
2023-04-05T23:54:35.093Z,38.79
2023-04-05T23:57:02.102Z,38.69
2023-04-05T23:59:28.643Z,38.27
